createdAt,value
2022-12-19T00:01:07.404Z,102560.88
2022-12-19T00:11:10.397Z,102566.28
2022-12-19T00:21:16.869Z,102564.81
2022-12-19T00:31:20.005Z,102564.13
2022-12-19T00:41:33.550Z,102569.59
2022-12-19T00:51:37.642Z,102566.19
2022-12-19T01:01:41.529Z,102554.44
2022-12-19T01:12:07.413Z,102552.91
2022-12-19T01:22:09.259Z,102540.69
2022-12-19T01:32:14.420Z,102519.31
2022-12-19T01:42:23.451Z,102504.34
2022-12-19T01:52:25.943Z,102501.22
2022-12-19T02:02:36.318Z,102483.94
2022-12-19T02:12:44.537Z,102488.97
2022-12-19T02:22:56.295Z,102497.84
2022-12-19T02:33:05.881Z,102498.09
2022-12-19T02:43:13.240Z,102512.03
2022-12-19T02:53:23.975Z,102512.81
2022-12-19T03:04:14.615Z,102515.38
2022-12-19T03:14:20.061Z,102498.31
2022-12-19T03:24:25.730Z,102493.66
2022-12-19T03:34:32.898Z,102472.91
2022-12-19T03:44:39.493Z,102470.91
2022-12-19T03:54:48.575Z,102478.97
2022-12-19T04:05:02.474Z,102482.25
2022-12-19T04:15:05.550Z,102472.13
2022-12-19T04:25:13.729Z,102479.50
2022-12-19T04:35:17.419Z,102481.34
2022-12-19T04:45:22.724Z,102481.41
2022-12-19T04:55:28.767Z,102476.59
2022-12-19T05:05:30.509Z,102484.81
2022-12-19T05:15:33.594Z,102483.81
2022-12-19T05:25:42.243Z,102485.47
2022-12-19T05:35:44.970Z,102465.84
2022-12-19T05:45:48.958Z,102480.50
2022-12-19T05:56:12.008Z,102465.84
2022-12-19T06:06:17.664Z,102468.06
2022-12-19T06:16:21.490Z,102482.50
2022-12-19T06:26:25.143Z,102491.53
2022-12-19T06:37:31.694Z,102500.25
2022-12-19T06:47:33.290Z,102509.88
2022-12-19T06:57:37.423Z,102512.66
2022-12-19T07:07:40.711Z,102505.31
2022-12-19T07:17:43.672Z,102522.78
2022-12-19T07:27:46.477Z,102519.63
2022-12-19T07:37:48.066Z,102534.34
2022-12-19T07:48:07.293Z,102513.75
2022-12-19T07:58:16.820Z,102520.16
2022-12-19T08:08:18.695Z,102539.56
2022-12-19T08:18:20.583Z,102563.72
2022-12-19T08:28:25.340Z,102550.72
2022-12-19T08:38:27.024Z,102530.47
2022-12-19T08:48:29.159Z,102527.81
2022-12-19T08:58:31.318Z,102516.44
2022-12-19T09:08:34.121Z,102516.03
2022-12-19T09:18:42.637Z,102507.59
2022-12-19T09:28:48.046Z,102526.03
2022-12-19T09:38:57.526Z,102517.84
2022-12-19T09:49:02.292Z,102495.16
2022-12-19T09:59:22.528Z,102489.41
2022-12-19T10:11:34.784Z,102464.94
2022-12-19T10:20:19.328Z,102461.97
2022-12-19T10:30:23.094Z,102459.84
2022-12-19T10:40:36.273Z,102437.97
2022-12-19T10:50:41.301Z,102429.84
2022-12-19T11:01:04.402Z,102429.16
2022-12-19T11:13:10.331Z,102412.28
2022-12-19T11:29:44.851Z,102410.50
2022-12-19T11:32:36.678Z,102408.16
2022-12-19T11:42:37.788Z,102397.09
2022-12-19T11:53:16.538Z,102370.19
2022-12-19T12:03:58.324Z,102360.81
2022-12-19T12:19:33.813Z,102351.75
2022-12-19T12:31:41.875Z,102337.91
2022-12-19T12:45:55.757Z,102345.59
2022-12-19T12:56:00.897Z,102334.91
2022-12-19T13:06:07.575Z,102318.38
2022-12-19T13:16:43.707Z,102334.97
2022-12-19T13:26:51.340Z,102319.13
2022-12-19T13:40:02.343Z,102313.03
2022-12-19T13:47:29.958Z,102293.84
2022-12-19T13:57:38.740Z,102313.81
2022-12-19T14:07:42.374Z,102300.44
2022-12-19T14:17:49.329Z,102303.28
2022-12-19T14:28:24.462Z,102285.34
2022-12-19T14:39:20.436Z,102287.44
2022-12-19T14:53:52.729Z,102305.09
2022-12-19T14:59:42.349Z,102307.47
2022-12-19T15:11:06.715Z,102303.94
2022-12-19T15:20:16.434Z,102314.59
2022-12-19T15:30:21.511Z,102305.34
2022-12-19T15:40:33.067Z,102315.88
2022-12-19T15:50:39.832Z,102297.34
2022-12-19T16:00:54.682Z,102307.19
2022-12-19T16:11:01.669Z,102285.09
2022-12-19T16:21:33.754Z,102288.75
2022-12-19T16:31:46.762Z,102284.84
2022-12-19T16:41:48.678Z,102269.97
2022-12-19T16:51:52.110Z,102253.91
2022-12-19T17:01:54.272Z,102254.34
2022-12-19T17:12:01.412Z,102268.97
2022-12-19T17:22:13.259Z,102258.88
2022-12-19T17:32:23.699Z,102270.97
2022-12-19T17:42:29.761Z,102281.97
2022-12-19T17:52:38.703Z,102284.22
2022-12-19T18:02:41.626Z,102280.31
2022-12-19T18:12:55.593Z,102266.97
2022-12-19T18:22:57.863Z,102271.06
2022-12-19T18:33:02.813Z,102281.47
2022-12-19T18:43:06.769Z,102259.91
2022-12-19T18:53:13.439Z,102237.22
2022-12-19T19:03:18.352Z,102214.41
2022-12-19T19:13:21.739Z,102211.41
2022-12-19T19:23:29.675Z,102204.75
2022-12-19T19:33:39.858Z,102211.88
2022-12-19T19:43:42.145Z,102209.28
2022-12-19T19:53:47.988Z,102193.00
2022-12-19T20:03:50.055Z,102185.50
2022-12-19T20:13:52.297Z,102185.81
2022-12-19T20:23:55.931Z,102210.09
2022-12-19T20:33:58.829Z,102203.91
2022-12-19T20:44:01.493Z,102189.28
2022-12-19T20:54:11.706Z,102179.56
2022-12-19T21:04:13.619Z,102187.69
2022-12-19T21:14:16.987Z,102171.72
2022-12-19T21:24:18.877Z,102180.78
2022-12-19T21:34:23.988Z,102188.31
2022-12-19T21:44:26.393Z,102166.69
2022-12-19T21:54:39.484Z,102153.63
2022-12-19T22:04:41.416Z,102178.69
2022-12-19T22:14:44.933Z,102168.84
2022-12-19T22:24:46.794Z,102145.28
2022-12-19T22:34:49.301Z,102135.91
2022-12-19T22:44:53.106Z,102112.91
2022-12-19T22:55:02.136Z,102111.03
2022-12-19T23:05:09.382Z,102070.72
2022-12-19T23:15:11.314Z,102086.25
2022-12-19T23:25:14.186Z,102084.72
2022-12-19T23:35:16.138Z,102074.50
2022-12-19T23:45:31.157Z,102072.31
2022-12-19T23:55:33.017Z,102056.88
